• Join FlightAware (Why Join?)
  • Login
  • US Flag 
11:04AM EDT


 

Airport Tracker/Info


-or-


 

Live Flight TrackerFlight Track Log ✈ AVN51 ✈ 26-Oct-2013 ✈ NZAA / AKL - NVVV / VLI

Flight Track Log - Related Links

Times and Time Zones

All times are in EDT time to prevent confusion due to time zone crossing. See the AVN51 flight status page for this flight to view local times or setup timezone preferences in your user account.

Time Position Orientation Groundspeed Altitude Reporting Facility
EDT Latitude Longitude Course Direction KTS MPH feet Rate Location/Type
08:21PM -37.0120 174.7850 247° West 155 178  Level FlightAware
08:21PM -37.0190 174.7630 248° West 164 189 600 1,680 Climbing FlightAware
08:22PM -37.0250 174.7390 253° West 171 197 1,400 1,500 Climbing FlightAware
08:22PM -37.0333 174.7000 253° West 185 213 1,200 Descending New Zealand
08:22PM -37.0340 174.7090 253° West 198 228 2,000 5,400 Climbing FlightAware
08:23PM -37.0430 174.6740 252° West 222 255 2,700 1,200 Climbing FlightAware
08:23PM -37.0520 174.6420 252° West 250 288 3,100 960 Climbing FlightAware
08:23PM -37.0500 174.6333 252° West 244 281 1,020 Descending New Zealand
08:24PM -37.0440 174.5960 282° West 294 338 3,600 5,400 Climbing FlightAware
08:24PM -37.0250 174.5680 310° West 310 357 3,900 1,260 Climbing FlightAware
08:25PM -36.9960 174.5380 320° Northwest 331 381 4,600 2,100 Climbing FlightAware
08:25PM -36.9810 174.5220 320° Northwest 327 376 5,300 2,340 Climbing FlightAware ADS-B
08:25PM -36.9370 174.4790 322° Northwest 335 386 6,500 2,160 Climbing FlightAware ADS-B
08:26PM -36.8750 174.4520 341° North 335 386 8,100 2,160 Climbing FlightAware
08:26PM -36.8350 174.4370 343° North 350 403 9,000 2,220 Climbing FlightAware ADS-B
08:27PM -36.8040 174.4260 344° North 355 409 9,800 2,520 Climbing FlightAware ADS-B
08:27PM -36.7520 174.4070 344° North 358 412 11,200 2,340 Climbing FlightAware ADS-B
08:28PM -36.6960 174.3870 344° North 366 421 12,500 2,460 Climbing FlightAware ADS-B
08:29PM -36.6333 174.3500 344° North 378 435 2,640 Descending New Zealand
08:29PM -36.6200 174.3390 344° North 370 426 14,700 21,780 Climbing FlightAware ADS-B
08:29PM -36.5730 174.3070 331° Northwest 375 432 16,000 2,340 Climbing FlightAware ADS-B
08:30PM -36.4640 174.2330 331° Northwest 388 447 18,700 2,220 Climbing FlightAware
08:31PM -36.4500 174.2167 331° Northwest 388 447 2,040 Descending New Zealand
08:31PM -36.4170 174.2010 331° Northwest 396 456 19,700 25,080 Climbing FlightAware ADS-B
08:31PM -36.3660 174.1750 338° Northwest 401 461 20,900 2,280 Climbing FlightAware ADS-B
08:32PM -36.3070 174.1550 345° North 404 465 22,100 1,740 Climbing FlightAware ADS-B
08:33PM -36.2410 174.1330 345° North 411 473 1,560 Descending FlightAware ADS-B
08:33PM -36.1440 174.1020 346° North 412 474 24,500 17,280 Climbing FlightAware
08:34PM -36.0790 174.0810 345° North 426 490 25,400 1,440 Climbing FlightAware ADS-B
08:35PM -36.0220 174.0630 346° North 431 496 26,100 1,320 Climbing FlightAware ADS-B
08:35PM -35.9520 174.0400 345° North 435 501 26,900 1,560 Climbing FlightAware
08:36PM -35.8833 174.0167 345° North 436 502 1,680 Descending New Zealand
08:36PM -35.8350 174.0030 345° North 430 495 28,600 21,780 Climbing FlightAware
08:37PM -35.7667 173.9833 345° North 424 488 1,920 Descending New Zealand
08:37PM -35.7220 173.9660 345° North 417 480 30,500 30,420 Climbing FlightAware
08:38PM -35.6500 173.9333 345° North 403 464 2,160 Descending New Zealand
08:38PM -35.6480 173.9430 345° North 400 460 32,000 62,460 Climbing FlightAware
08:38PM -35.5950 173.9260 345° North 397 457 32,300 600 Climbing FlightAware
08:39PM -35.5333 173.9000 345° North 410 472 600 Descending New Zealand
08:39PM -35.5110 173.8990 345° North 413 475 32,800 32,760 Climbing FlightAware
08:40PM -35.4167 173.8667 345° North 408 470 1,380 Descending New Zealand
08:40PM -35.4280 173.8730 345° North 398 458 33,900 42,720 Climbing FlightAware
08:41PM -35.3380 173.8440 345° North 396 456 34,900 1,080 Climbing FlightAware
08:41PM -35.2750 173.8240 345° North 383 441 35,500 960 Climbing FlightAware
08:42PM -35.2230 173.8080 345° North 386 444 36,000 360 Climbing FlightAware
08:42PM -35.2000 173.8000 345° North 386 444  Descending New Zealand
08:43PM -35.1360 173.7800 345° North 382 440 36,000 25,080 Climbing FlightAware
08:43PM -35.0580 173.7560 346° North 382 440 36,000  Level FlightAware
08:44PM -34.9833 173.7333 346° North 390 449  Descending New Zealand
08:44PM -34.9790 173.7310 346° North 384 442 36,000 55,380 Climbing FlightAware
08:45PM -34.9260 173.7140 345° North 384 442 36,000  Level FlightAware
08:45PM -34.8370 173.6860 346° North 386 444 36,000  Level FlightAware
08:46PM -34.7667 173.6667 346° North 393 452  Descending New Zealand
08:46PM -34.7760 173.6670 346° North 386 444 36,000 42,300 Climbing FlightAware
08:47PM -34.6870 173.6390 345° North 386 444 36,000  Level FlightAware
08:47PM -34.6240 173.6190 345° North 396 456 36,000  Level FlightAware
08:48PM -34.5780 173.6050 345° North 396 456 36,000  Level FlightAware
08:48PM -34.5500 173.6000 345° North 395 455  Descending New Zealand
08:49PM -34.4990 173.5810 346° North 386 444 36,000 22,920 Climbing FlightAware
08:50PM -34.3930 173.5480 346° North 384 442 36,000  Level FlightAware
08:50PM -34.2970 173.5180 346° North 382 440 36,000  Level FlightAware
08:51PM -34.2333 173.5000 346° North 391 450  Descending New Zealand
08:51PM -34.2270 173.4960 346° North 383 441 36,000 61,680 Climbing FlightAware
08:52PM -34.1730 173.4800 346° North 383 441 36,000  Level FlightAware
08:53PM -34.0600 173.4460 346° North 383 441 36,000  Level FlightAware
08:53PM -34.0060 173.4290 345° North 382 440 36,000  Level FlightAware
08:54PM -33.9440 173.4100 346° North 383 441 36,000  Level FlightAware
08:55PM -33.8820 173.3910 346° North 382 440 36,000  Level FlightAware
08:55PM -33.8000 173.3500 346° North 386 444  Descending New Zealand
08:55PM -33.7980 173.3600 346° North 387 445 36,000 34,260 Climbing FlightAware
08:56PM -33.7000 173.3167 346° North 387 445  Descending New Zealand
08:56PM -33.6980 173.3230 346° North 388 447 36,000 34,800 Climbing FlightAware
08:57PM -33.5833 173.2833 346° North 388 447  Descending New Zealand
08:57PM -33.6080 173.2880 346° North 388 447 36,000 44,040 Climbing FlightAware
08:58PM -33.5380 173.2610 342° North 388 447 36,000  Level FlightAware
08:59PM -33.4680 173.2340 342° North 388 447 36,000  Level FlightAware
08:59PM -33.4160 173.2130 341° North 388 447 36,000  Level FlightAware
09:00PM -33.3450 173.1860 341° North 388 447 36,000  Level FlightAware
09:00PM -33.2667 173.1667 341° North 392 451  Descending New Zealand
09:01PM -33.2910 173.1650 342° North 388 447 36,000 30,840 Climbing FlightAware
09:01PM -33.2390 173.1450 342° North 388 447 36,000  Level FlightAware
09:02PM -33.1690 173.1180 342° North 388 447 36,000  Level FlightAware
09:02PM -33.0667 173.0833 342° North 389 448  Descending New Zealand
09:03PM -33.0980 173.0900 342° North 388 447 36,000 20,520 Climbing FlightAware
09:04PM -32.9167 173.0333 342° North 395 455  Descending New Zealand
09:04PM -33.0100 173.0560 342° North 388 447 36,000 25,380 Climbing FlightAware
09:05PM -32.9230 173.0220 342° North 388 447 36,000  Level FlightAware
09:06PM -32.8880 173.0080 342° North 388 447 36,000  Level FlightAware
09:06PM -32.7000 172.9500 342° North 395 455  Descending New Zealand
09:07PM -32.8010 172.9750 342° North 388 447 36,000 480 Climbing FlightAware
09:08PM -32.4833 172.8833 342° North 395 455  Descending New Zealand
09:10PM -32.2833 172.8000 341° North 395 455 480 Level New Zealand
09:12PM -32.0667 172.7333 345° North 395 455 480 Level New Zealand
09:14PM -31.8500 172.6500 342° North 395 455 480 Level New Zealand
09:16PM -31.6500 172.5833 344° North 395 455 540 Level New Zealand
09:18PM -31.4333 172.5000 342° North 395 455 540 Level New Zealand
09:20PM -31.2333 172.4333 344° North 395 455 540 Level New Zealand
09:22PM -31.0167 172.3667 345° North 395 455 600 Level New Zealand
09:24PM -30.8000 172.2833 342° North 395 455 600 Level New Zealand
09:26PM -30.6000 172.2167 344° North 395 455 600 Level New Zealand
09:28PM -30.3833 172.1333 342° North 395 455 660 Level New Zealand
09:30PM -30.1667 172.0667 345° North 395 455 660 Level New Zealand
09:32PM -29.9667 172.0000 344° North 395 455 720 Level New Zealand
09:34PM -29.7500 171.9167 342° North 395 455 720 Level New Zealand
09:36PM -29.5333 171.8500 345° North 426 490 780 Level New Zealand
09:38PM -29.3167 171.7833 345° North 426 490 780 Level New Zealand
09:40PM -29.0833 171.7000 343° North 426 490 840 Level New Zealand
09:42PM -28.8500 171.6167 343° North 426 490 900 Level New Zealand
09:44PM -28.6333 171.5500 345° North 421 484 900 Level New Zealand
09:46PM -28.4167 171.4833 345° North 421 484 960 Level New Zealand
09:48PM -28.1833 171.4000 343° North 421 484 1,020 Level New Zealand
09:50PM -27.9667 171.3333 345° North 421 484 1,080 Level New Zealand
09:52PM -27.7333 171.2500 342° North 421 484 1,200 Level New Zealand
09:54PM -27.5167 171.1833 345° North 421 484 1,260 Level New Zealand
09:56PM -27.2833 171.1167 346° North 421 484 1,380 Level New Zealand
09:58PM -27.0500 171.0333 342° North 421 484 1,500 Level New Zealand
10:00PM -26.8167 170.9500 342° North 421 484 1,620 Level New Zealand
10:02PM -26.5833 170.8833 346° North 421 484 1,800 Level New Zealand
10:04PM -26.3667 170.8167 345° North 421 484 2,040 Level New Zealand
10:06PM -26.1333 170.7500 346° North 421 484 2,280 Level New Zealand
10:08PM -25.9167 170.6667 341° North 421 484 2,640 Level New Zealand
10:10PM -25.7724 170.6261 346° North  Level FlightAware Approximate
10:17PM -25.1600 170.4283 344° North  Level FlightAware Approximate
10:18PM -25.0726 170.3999 344° North  Level FlightAware Approximate
10:19PM -24.9851 170.3716 344° North  Level FlightAware Approximate
10:19PM -24.4520 170.2000 344° North 443 510 36,000  Level FlightAware
10:20PM -24.8977 170.3433 344° North  Level FlightAware Approximate
10:20PM -24.3780 170.1750 343° North 443 510 36,000  Level FlightAware
10:21PM -24.2760 170.1410 343° North 443 510 36,000 -60 Level FlightAware
10:22PM -24.1460 170.1020 345° North 446 513 35,900 -180 Descending FlightAware
10:23PM -24.0590 170.0730 343° North 448 516 35,800 -240 Descending FlightAware
10:23PM -23.9760 170.0480 345° North 448 516 35,600 -300 Descending FlightAware
10:24PM -23.9230 170.0310 344° North 448 516 35,500 -360 Descending FlightAware
10:25PM -23.8260 169.9990 343° North 449 517 35,200 -420 Descending FlightAware
10:26PM -23.7040 169.9610 344° North 453 521 34,800 -600 Descending FlightAware
10:26PM -23.6040 169.9300 344° North 457 526 34,200 -420 Descending FlightAware
10:27PM -23.5300 169.9050 343° North 457 526 34,200  Level FlightAware
10:28PM -23.4260 169.8700 343° North 457 526 34,200  Level FlightAware
10:29PM -23.3850 169.8570 344° North 457 526 34,200  Level FlightAware
10:29PM -23.3220 169.8360 343° North 457 526 34,200 -1,440 Level FlightAware
10:30PM -23.2010 169.8020 346° North 461 531 32,600 -1,620 Descending FlightAware
10:30PM -23.1520 169.7860 343° North 461 531 32,600  Level FlightAware
10:31PM -23.0900 169.7650 343° North 461 531 32,600  Level FlightAware
10:31PM -23.0260 169.7440 343° North 461 531 32,600  Level FlightAware
10:32PM -22.9620 169.7230 343° North 461 531 32,600  Level FlightAware
10:33PM -22.8990 169.7020 343° North 461 531 32,600 -1,020 Level FlightAware
10:34PM -22.7190 169.6500 345° North 464 534 30,900 -960 Descending FlightAware
10:34PM -22.6350 169.6230 343° North 464 534 30,900  Level FlightAware
10:35PM -22.5300 169.5880 343° North 464 534 30,900  Level FlightAware
10:36PM -22.4460 169.5600 343° North 464 534 30,900  Level FlightAware
10:37PM -22.3610 169.5320 343° North 464 534 30,900  Level FlightAware
10:38PM -22.2750 169.5040 343° North 464 534 30,900  Level FlightAware
10:39PM -22.2110 169.4820 342° North 464 534 30,900  Level FlightAware
10:39PM -22.1520 169.4630 343° North 464 534 30,900  Level FlightAware
10:40PM -22.1080 169.4480 342° North 464 534 30,900  Level FlightAware
10:41PM -22.0000 169.4130 343° North 464 534 30,900 -480 Level FlightAware
10:41PM -21.7710 169.3570 347° North 451 519 30,000 -540 Descending FlightAware
10:42PM -21.6680 169.3260 344° North 451 519 30,000  Level FlightAware
10:43PM -21.5820 169.2970 343° North 451 519 30,000  Level FlightAware
10:44PM -21.5000 169.2710 344° North 451 519 30,000  Level FlightAware
10:44PM -21.4600 169.2570 342° North 451 519 30,000  Level FlightAware
10:45PM -21.3990 169.2370 343° North 451 519 30,000  Level FlightAware
10:46PM -21.3360 169.2170 344° North 451 519 30,000  Level FlightAware
10:46PM -21.2750 169.1960 342° North 451 519 30,000  Level FlightAware
10:49PM -21.0688 169.1340 344° North  Level FlightAware Approximate
10:50PM -20.9811 169.1076 344° North  Level FlightAware Approximate
10:51PM -20.8933 169.0813 344° North  Level FlightAware Approximate
10:52PM -20.8056 169.0550 344° North  Level FlightAware Approximate
10:53PM -20.7178 169.0288 344° North  Level FlightAware Approximate
10:54PM -20.6301 169.0025 344° North  Level FlightAware Approximate
10:55PM -20.5423 168.9764 344° North  Level FlightAware Approximate
10:56PM -20.4545 168.9502 344° North  Level FlightAware Approximate
10:57PM -20.3668 168.9241 344° North  Level FlightAware Approximate
10:58PM -20.2790 168.8980 344° North  Level FlightAware Approximate
10:59PM -20.1912 168.8719 344° North  Level FlightAware Approximate
11:00PM -20.1034 168.8458 344° North  Level FlightAware Approximate
11:01PM -20.0157 168.8198 344° North  Level FlightAware Approximate
11:02PM -19.9279 168.7938 344° North  Level FlightAware Approximate
11:03PM -19.8401 168.7679 344° North  Level FlightAware Approximate
11:04PM -19.7523 168.7419 344° North  Level FlightAware Approximate
11:05PM -19.6645 168.7160 344° North  Level FlightAware Approximate
11:06PM -19.5767 168.6902 344° North  Level FlightAware Approximate
11:07PM -19.4889 168.6643 344° North  Level FlightAware Approximate
11:08PM -19.4011 168.6385 345° North  Level FlightAware Approximate
11:09PM -19.3137 168.6137 348° North  Level FlightAware Approximate
11:10PM -19.2246 168.5936 348° North  Level FlightAware Approximate
11:11PM -19.1355 168.5735 348° North  Level FlightAware Approximate
11:12PM -19.0464 168.5534 348° North  Level FlightAware Approximate
11:13PM -18.9572 168.5333 348° North  Level FlightAware Approximate
11:14PM -18.8681 168.5132 348° North  Level FlightAware Approximate
11:15PM -18.7790 168.4932 348° North  Level FlightAware Approximate
11:16PM -18.6898 168.4732 348° North  Level FlightAware Approximate
11:17PM -18.6007 168.4532 348° North  Level FlightAware Approximate
11:18PM -18.5116 168.4332 348° North  Level FlightAware Approximate
11:19PM -18.4224 168.4133 348° North  Level FlightAware Approximate
11:20PM -18.3333 168.3934 348° North  Level FlightAware Approximate
11:21PM -18.2442 168.3734 348° North  Level FlightAware Approximate
11:22PM -18.1550 168.3535 348° North  Level FlightAware Approximate
11:23PM -18.0659 168.3337 348° North  Level FlightAware Approximate
11:24PM -17.9767 168.3138 348° North  Level FlightAware Approximate
11:25PM -17.8876 168.2940 348° North  Level FlightAware Approximate
11:26PM -17.7984 168.2742 348° North  Level FlightAware Approximate
11:27PM -17.7093 168.2544 348° North  Level FlightAware Approximate
11:28PM -17.6621 168.2439 348° North  Level FlightAware Approximate
11:29PM -17.6993 168.3198 348° North  Level Estimated
11:30PM -17.6993 168.3198 348° North  Level Estimated
11:31PM -17.6993 168.3198 348° North  Level Estimated
11:32PM -17.6993 168.3198 348° North  Level Estimated
11:33PM -17.6993 168.3198 348° North  Level Estimated
11:34PM -17.6993 168.3198 348° North  Level Estimated
11:35PM -17.6993 168.3198 348° North  Level Estimated
11:36PM -17.6993 168.3198 348° North  Level Estimated
11:37PM -17.6993 168.3198 348° North  Level Estimated
11:38PM -17.6993 168.3198 348° North  Level Estimated
11:39PM -17.6993 168.3198 348° North  Level Estimated
11:40PM -17.6993 168.3198 348° North  Level Estimated
11:41PM -17.6993 168.3198 348° North  Level Estimated
11:42PM -17.6993 168.3198 348° North  Level Estimated